Terminal Aerodrome Forecast
Issued by NWS Chicago, IL

Home | Current Version | Previous Version | Graphics & Text | Print | Product List | Glossary On
Versions: 1 2 3 4 5 6 7 8 9 10 11 12 13 14 15 16 17 18 19 20 21 22 23 24 25 26 27 28 29 30 31 32 33
735
FTUS43 KLOT 262058 AAA
TAFRFD
TAF AMD
KRFD 262058Z 2621/2718 21008KT P6SM BKN010 OVC025
     FM270000 24005KT 6SM BR OVC009
     FM270400 28005KT 5SM BR OVC007
     FM270800 32005KT 3SM BR SCT004 OVC007
     FM271500 04006KT P6SM OVC010=

USA.gov is the U.S. government's official web portal to all federal, state and local government web resources and services.